Terminal Aerodrome Forecast
Issued by NWS Brownsville, TX

Home | Current Version | Previous Version | Text Only | Print | Product List | Glossary On
Versions: 1 2 3 4 5 6 7 8 9 10 11 12 13 14 15 16 17 18 19 20 21 22 23 24 25
000
FTUS44 KBRO 030534
TAFHRL
TAF
KHRL 030534Z 0306/0406 14008KT P6SM SCT015 OVC050
     FM030800 14008KT P6SM OVC015
     FM031500 17017G23KT P6SM OVC025
     FM031800 17021G29KT P6SM BKN035
     FM040000 14009KT P6SM OVC020=

USA.gov is the U.S. government's official web portal to all federal, state and local government web resources and services.